Time;durP1;ratioP1;P1;durP2;ratioP2;P2;SDS_P1;SDS_P2;PMS_P1;PMS_P2;Temp;Humidity;BMP_temperature;BMP_pressure;BME280_temperature;BME280_humidity;BME280_pressure;Samples;Min_cycle;Max_cycle;Signal;HPM_P1;HPM_P2
2021/03/23 00:00:58;;;;;;;;;;;13.00;53.80;;;;;;2094419;28;1350;-47
2021/03/23 00:02:18;;;;;;;;;;;13.00;53.80;;;;;;2089305;28;723;-47
2021/03/23 00:03:41;;;;;;;;;;;13.00;54.30;;;;;;2091288;28;729;-46
2021/03/23 00:05:00;;;;;;;;;;;12.90;53.70;;;;;;2097464;28;713;-46
2021/03/23 00:06:21;;;;;;;;;;;13.00;53.80;;;;;;2097785;28;756;-48
2021/03/23 00:07:40;;;;;;;;;;;13.00;53.80;;;;;;2096886;28;767;-46
2021/03/23 00:09:00;;;;;;;;;;;13.00;53.80;;;;;;2097746;28;723;-46
2021/03/23 00:10:23;;;;;;;;;;;12.90;53.70;;;;;;2097988;28;711;-46
2021/03/23 00:11:42;;;;;;;;;;;12.90;53.70;;;;;;2090879;28;739;-45
2021/03/23 00:13:02;;;;;;;;;;;12.90;53.70;;;;;;2096387;28;768;-48
2021/03/23 00:14:21;;;;;;;;;;;12.90;53.80;;;;;;2099674;28;828;-48
2021/03/23 00:15:41;;;;;;;;;;;12.90;53.70;;;;;;2099096;28;721;-47
2021/03/23 00:17:00;;;;;;;;;;;12.90;53.80;;;;;;2098940;28;730;-47
2021/03/23 00:18:20;;;;;;;;;;;12.90;53.80;;;;;;2099324;28;834;-48
2021/03/23 00:19:39;;;;;;;;;;;12.90;53.80;;;;;;2099603;28;708;-48
2021/03/23 00:20:59;;;;;;;;;;;12.90;53.80;;;;;;2099583;28;1324;-49
2021/03/23 00:22:18;;;;;;;;;;;12.90;53.80;;;;;;2096107;28;1342;-49
2021/03/23 00:23:37;;;;;;;;;;;12.90;53.80;;;;;;2099538;28;728;-47
2021/03/23 00:24:56;;;;;;;;;;;12.90;54.40;;;;;;2089184;28;870;-48
2021/03/23 00:26:16;;;;;;;;;;;12.90;54.40;;;;;;2092756;28;1149;-48
2021/03/23 00:27:35;;;;;;;;;;;12.90;54.40;;;;;;2096027;28;1234;-48
2021/03/23 00:28:56;;;;;;;;;;;12.90;53.90;;;;;;2090696;28;752;-47
2021/03/23 00:30:15;;;;;;;;;;;12.90;53.90;;;;;;2095799;28;798;-49
2021/03/23 00:31:34;;;;;;;;;;;12.80;53.80;;;;;;2099145;28;1393;-48
2021/03/23 00:32:54;;;;;;;;;;;12.90;53.90;;;;;;2098660;28;738;-47
2021/03/23 00:34:13;;;;;;;;;;;12.90;53.90;;;;;;2099373;28;711;-48
2021/03/23 00:35:32;;;;;;;;;;;12.90;53.90;;;;;;2090137;28;732;-47
2021/03/23 00:36:51;;;;;;;;;;;12.80;53.80;;;;;;2087294;28;760;-46
2021/03/23 00:38:11;;;;;;;;;;;12.80;53.90;;;;;;2092593;28;780;-47
2021/03/23 00:39:30;;;;;;;;;;;12.80;53.80;;;;;;2095256;28;734;-48
2021/03/23 00:40:50;;;;;;;;;;;12.80;53.90;;;;;;2096725;28;1268;-47
2021/03/23 00:42:09;;;;;;;;;;;12.80;54.40;;;;;;2092775;28;1988;-47
2021/03/23 00:43:28;;;;;;;;;;;12.80;54.40;;;;;;2098931;28;787;-46
2021/03/23 00:44:47;;;;;;;;;;;12.80;53.90;;;;;;2095551;28;792;-47
2021/03/23 00:46:07;;;;;;;;;;;12.80;53.90;;;;;;2089738;28;750;-47
2021/03/23 00:47:26;;;;;;;;;;;12.80;54.00;;;;;;2089645;28;756;-47
2021/03/23 00:48:45;;;;;;;;;;;12.80;54.00;;;;;;2096679;28;819;-47
2021/03/23 00:50:04;;;;;;;;;;;12.80;54.00;;;;;;2099031;28;986;-49
2021/03/23 00:51:24;;;;;;;;;;;12.80;54.10;;;;;;2099076;28;1423;-48
2021/03/23 00:52:43;;;;;;;;;;;12.80;54.10;;;;;;2098869;28;728;-48
2021/03/23 00:54:02;;;;;;;;;;;12.80;54.10;;;;;;2096503;28;905;-48
2021/03/23 00:55:21;;;;;;;;;;;12.80;54.10;;;;;;2097420;28;1027;-48
2021/03/23 00:56:41;;;;;;;;;;;12.80;54.10;;;;;;2086142;28;920;-47
2021/03/23 00:58:00;;;;;;;;;;;12.80;54.10;;;;;;2097161;28;1752;-48
2021/03/23 00:59:19;;;;;;;;;;;12.80;54.70;;;;;;2097417;28;1391;-47
2021/03/23 01:00:38;;;;;;;;;;;12.80;54.10;;;;;;2081512;28;913;-47
2021/03/23 01:01:57;;;;;;;;;;;12.80;54.10;;;;;;2098945;28;1897;-48
2021/03/23 01:03:16;;;;;;;;;;;12.80;54.10;;;;;;2099347;28;757;-47
2021/03/23 01:04:36;;;;;;;;;;;12.70;54.00;;;;;;2099370;28;755;-46
2021/03/23 01:05:55;;;;;;;;;;;12.80;54.10;;;;;;2098928;28;729;-46
2021/03/23 01:07:14;;;;;;;;;;;12.80;54.10;;;;;;2099085;28;763;-49
2021/03/23 01:08:33;;;;;;;;;;;12.70;54.10;;;;;;2099335;28;772;-47
2021/03/23 01:09:53;;;;;;;;;;;12.70;54.10;;;;;;2098927;28;758;-47
2021/03/23 01:11:12;;;;;;;;;;;12.70;54.10;;;;;;2099004;28;1349;-46
2021/03/23 01:12:31;;;;;;;;;;;12.80;54.30;;;;;;2099301;28;693;-46
2021/03/23 01:13:50;;;;;;;;;;;12.70;54.10;;;;;;2098405;28;803;-48
2021/03/23 01:15:10;;;;;;;;;;;12.70;54.20;;;;;;2094607;28;765;-52
2021/03/23 01:16:29;;;;;;;;;;;12.70;54.10;;;;;;2098885;28;761;-54
2021/03/23 01:17:48;;;;;;;;;;;12.70;54.20;;;;;;2098464;28;729;-50
2021/03/23 01:19:08;;;;;;;;;;;12.70;54.70;;;;;;2098856;28;726;-50
2021/03/23 01:20:27;;;;;;;;;;;12.70;54.70;;;;;;2098447;28;729;-50
2021/03/23 01:21:47;;;;;;;;;;;12.70;54.70;;;;;;2095031;28;1910;-48
2021/03/23 01:23:06;;;;;;;;;;;12.70;54.20;;;;;;2095014;28;729;-49
2021/03/23 01:24:25;;;;;;;;;;;12.70;54.20;;;;;;2098539;28;749;-50
2021/03/23 01:25:44;;;;;;;;;;;12.70;54.20;;;;;;2097857;28;734;-50
2021/03/23 01:27:04;;;;;;;;;;;12.70;54.20;;;;;;2098908;28;770;-49
2021/03/23 01:28:23;;;;;;;;;;;12.70;54.30;;;;;;2093867;28;1011;-51
2021/03/23 01:29:43;;;;;;;;;;;12.70;54.30;;;;;;2089253;28;982;-51
2021/03/23 01:31:02;;;;;;;;;;;12.70;54.30;;;;;;2094137;28;1403;-50
2021/03/23 01:32:21;;;;;;;;;;;12.70;54.30;;;;;;2090208;28;775;-50
2021/03/23 01:33:40;;;;;;;;;;;12.70;54.20;;;;;;2090372;28;734;-50
2021/03/23 01:35:00;;;;;;;;;;;12.70;54.20;;;;;;2090048;28;724;-51
2021/03/23 01:36:19;;;;;;;;;;;12.70;54.80;;;;;;2090165;28;959;-51
2021/03/23 01:37:38;;;;;;;;;;;12.70;54.20;;;;;;2090448;28;715;-51
2021/03/23 01:38:57;;;;;;;;;;;12.70;54.20;;;;;;2081690;28;761;-49
2021/03/23 01:40:17;;;;;;;;;;;12.70;54.20;;;;;;2087049;28;702;-48
2021/03/23 01:41:36;;;;;;;;;;;12.60;54.20;;;;;;2090564;28;1894;-49
2021/03/23 01:42:59;;;;;;;;;;;12.60;54.20;;;;;;2090637;28;729;-51
2021/03/23 01:44:18;;;;;;;;;;;12.60;54.20;;;;;;2089992;28;973;-50
2021/03/23 01:45:38;;;;;;;;;;;12.60;54.20;;;;;;2089921;28;740;-49
2021/03/23 01:46:57;;;;;;;;;;;12.60;54.20;;;;;;2081823;28;757;-50
2021/03/23 01:48:20;;;;;;;;;;;12.60;54.80;;;;;;2087149;28;780;-50
2021/03/23 01:49:39;;;;;;;;;;;12.60;54.80;;;;;;2090394;28;718;-49
2021/03/23 01:50:59;;;;;;;;;;;12.60;54.20;;;;;;2090028;28;1466;-48
2021/03/23 01:52:18;;;;;;;;;;;12.60;54.30;;;;;;2086799;28;705;-50
2021/03/23 01:53:41;;;;;;;;;;;12.60;54.30;;;;;;2086637;28;767;-50
2021/03/23 01:55:01;;;;;;;;;;;12.60;54.30;;;;;;2078123;28;716;-50
2021/03/23 01:56:20;;;;;;;;;;;12.60;54.40;;;;;;2083729;28;796;-50
2021/03/23 01:57:39;;;;;;;;;;;12.60;54.40;;;;;;2086669;28;734;-50
2021/03/23 01:58:58;;;;;;;;;;;12.60;54.90;;;;;;2086824;28;976;-54
2021/03/23 02:00:18;;;;;;;;;;;12.60;54.40;;;;;;2091696;28;1042;-48
2021/03/23 02:01:37;;;;;;;;;;;12.60;54.40;;;;;;2097806;28;1906;-49
2021/03/23 02:02:57;;;;;;;;;;;12.60;54.40;;;;;;2095065;28;782;-48
2021/03/23 02:04:16;;;;;;;;;;;12.60;54.40;;;;;;2094904;28;738;-50
2021/03/23 02:05:35;;;;;;;;;;;12.60;54.40;;;;;;2097888;28;734;-51
2021/03/23 02:06:55;;;;;;;;;;;12.60;54.40;;;;;;2098709;28;725;-48
2021/03/23 02:08:14;;;;;;;;;;;12.60;54.40;;;;;;2097225;28;771;-51
2021/03/23 02:09:34;;;;;;;;;;;12.60;54.40;;;;;;2097897;28;794;-50
2021/03/23 02:10:53;;;;;;;;;;;12.60;54.40;;;;;;2086521;28;1356;-47
2021/03/23 02:12:15;;;;;;;;;;;12.60;54.40;;;;;;2094810;28;721;-50
2021/03/23 02:13:33;;;;;;;;;;;12.60;54.40;;;;;;2098606;28;761;-49
2021/03/23 02:14:53;;;;;;;;;;;12.50;54.40;;;;;;2097744;28;796;-49
2021/03/23 02:16:12;;;;;;;;;;;12.60;54.50;;;;;;2086536;28;750;-50
2021/03/23 02:17:33;;;;;;;;;;;12.50;54.40;;;;;;2089169;28;1423;-50
2021/03/23 02:18:52;;;;;;;;;;;12.50;54.50;;;;;;2098512;28;767;-51
2021/03/23 02:20:13;;;;;;;;;;;12.50;54.50;;;;;;2098534;28;751;-47
2021/03/23 02:21:32;;;;;;;;;;;12.50;54.50;;;;;;2098048;28;1902;-49
2021/03/23 02:23:02;;;;;;;;;;;12.50;54.50;;;;;;2098324;28;708;-49
2021/03/23 02:24:21;;;;;;;;;;;12.50;54.50;;;;;;2097915;28;935;-51
2021/03/23 02:25:40;;;;;;;;;;;12.50;54.50;;;;;;2097864;28;765;-49
2021/03/23 02:26:59;;;;;;;;;;;12.50;54.50;;;;;;2098661;28;715;-53
2021/03/23 02:28:19;;;;;;;;;;;12.50;54.60;;;;;;2094043;28;970;-53
2021/03/23 02:29:38;;;;;;;;;;;12.50;54.50;;;;;;2093525;28;837;-50
2021/03/23 02:30:57;;;;;;;;;;;12.50;54.50;;;;;;2090173;28;1434;-50
2021/03/23 02:32:16;;;;;;;;;;;12.50;54.50;;;;;;2098304;28;744;-52
2021/03/23 02:33:35;;;;;;;;;;;12.50;54.50;;;;;;2088773;28;1163;-50
2021/03/23 02:34:55;;;;;;;;;;;12.50;55.10;;;;;;2093470;28;1346;-51
2021/03/23 02:36:14;;;;;;;;;;;12.50;54.50;;;;;;2098608;28;725;-50
2021/03/23 02:37:33;;;;;;;;;;;12.50;54.50;;;;;;2098425;28;722;-49
2021/03/23 02:38:52;;;;;;;;;;;12.50;54.60;;;;;;2098405;28;732;-47
2021/03/23 02:40:12;;;;;;;;;;;12.50;54.60;;;;;;2097697;28;776;-48
2021/03/23 02:41:31;;;;;;;;;;;12.50;54.60;;;;;;2097522;28;1981;-46
2021/03/23 02:42:50;;;;;;;;;;;12.50;54.70;;;;;;2094463;28;808;-46
2021/03/23 02:44:10;;;;;;;;;;;12.50;54.60;;;;;;2094642;28;708;-46
2021/03/23 02:45:30;;;;;;;;;;;12.50;54.60;;;;;;2097377;28;717;-48
2021/03/23 02:46:49;;;;;;;;;;;12.50;54.70;;;;;;2089627;28;717;-47
2021/03/23 02:48:08;;;;;;;;;;;12.50;54.70;;;;;;2091389;28;735;-46
2021/03/23 02:49:27;;;;;;;;;;;12.50;54.70;;;;;;2086246;28;776;-47
2021/03/23 02:50:47;;;;;;;;;;;12.50;54.70;;;;;;2094660;28;1432;-46
2021/03/23 02:52:06;;;;;;;;;;;12.50;55.20;;;;;;2098511;28;782;-46
2021/03/23 02:53:26;;;;;;;;;;;12.40;54.60;;;;;;2098403;28;744;-46
2021/03/23 02:54:45;;;;;;;;;;;12.40;54.60;;;;;;2097779;28;753;-47
2021/03/23 02:56:04;;;;;;;;;;;12.50;54.70;;;;;;2097776;28;759;-45
2021/03/23 02:57:23;;;;;;;;;;;12.40;54.60;;;;;;2098335;28;734;-50
2021/03/23 02:58:43;;;;;;;;;;;12.50;54.70;;;;;;2093201;28;1034;-46
2021/03/23 03:00:04;;;;;;;;;;;12.40;54.70;;;;;;2093528;28;1240;-46
2021/03/23 03:01:23;;;;;;;;;;;12.40;54.70;;;;;;2096503;28;1906;-46
2021/03/23 03:02:43;;;;;;;;;;;12.40;54.70;;;;;;2094712;28;741;-47
2021/03/23 03:04:05;;;;;;;;;;;12.40;54.70;;;;;;2098062;28;731;-46
2021/03/23 03:05:24;;;;;;;;;;;12.40;55.20;;;;;;2097133;28;975;-46
2021/03/23 03:06:43;;;;;;;;;;;12.40;54.70;;;;;;2094236;28;772;-47
2021/03/23 03:08:03;;;;;;;;;;;12.40;54.70;;;;;;2097090;28;756;-47
2021/03/23 03:09:22;;;;;;;;;;;12.40;54.70;;;;;;2097569;28;892;-48
2021/03/23 03:10:41;;;;;;;;;;;12.40;54.70;;;;;;2094210;28;1476;-49
2021/03/23 03:12:01;;;;;;;;;;;12.40;54.70;;;;;;2095518;28;778;-50
2021/03/23 03:13:22;;;;;;;;;;;12.40;54.70;;;;;;2094148;28;907;-48
2021/03/23 03:14:41;;;;;;;;;;;12.40;54.80;;;;;;2094760;28;792;-47
2021/03/23 03:16:01;;;;;;;;;;;12.40;54.70;;;;;;2096605;28;793;-48
2021/03/23 03:17:20;;;;;;;;;;;12.40;55.20;;;;;;2098071;28;726;-47
2021/03/23 03:18:39;;;;;;;;;;;12.40;55.30;;;;;;2098258;28;770;-48
2021/03/23 03:19:58;;;;;;;;;;;12.40;55.30;;;;;;2089235;28;773;-48
2021/03/23 03:21:18;;;;;;;;;;;12.40;54.80;;;;;;2091114;28;1341;-47
2021/03/23 03:22:37;;;;;;;;;;;12.40;54.80;;;;;;2094251;28;780;-49
2021/03/23 03:23:56;;;;;;;;;;;12.40;54.80;;;;;;2097721;28;782;-48
2021/03/23 03:25:15;;;;;;;;;;;12.40;54.80;;;;;;2084535;28;1125;-47
2021/03/23 03:26:34;;;;;;;;;;;12.40;54.80;;;;;;2080883;28;851;-47
2021/03/23 03:27:54;;;;;;;;;;;12.40;54.80;;;;;;2090605;28;964;-47
2021/03/23 03:29:13;;;;;;;;;;;12.40;54.80;;;;;;2086716;28;1000;-50
2021/03/23 03:30:32;;;;;;;;;;;12.30;54.70;;;;;;2082355;28;1029;-49
2021/03/23 03:31:51;;;;;;;;;;;12.40;54.80;;;;;;2098300;28;735;-49
2021/03/23 03:33:11;;;;;;;;;;;12.40;54.80;;;;;;2098416;28;771;-46
2021/03/23 03:34:31;;;;;;;;;;;12.40;54.80;;;;;;2089341;28;787;-47
2021/03/23 03:35:50;;;;;;;;;;;12.40;55.40;;;;;;2094584;28;708;-48
2021/03/23 03:37:09;;;;;;;;;;;12.30;55.30;;;;;;2088859;28;819;-48
2021/03/23 03:38:28;;;;;;;;;;;12.30;54.70;;;;;;2092245;28;1732;-47
2021/03/23 03:39:48;;;;;;;;;;;12.30;55.00;;;;;;2085313;28;1182;-48
2021/03/23 03:41:07;;;;;;;;;;;12.30;54.70;;;;;;2088475;28;1463;-48
2021/03/23 03:42:26;;;;;;;;;;;12.30;54.70;;;;;;2077370;28;761;-46
2021/03/23 03:43:45;;;;;;;;;;;12.30;54.70;;;;;;2086033;28;757;-46
2021/03/23 03:45:06;;;;;;;;;;;12.30;54.70;;;;;;2089242;28;733;-48
2021/03/23 03:46:25;;;;;;;;;;;12.30;54.80;;;;;;2092402;28;741;-48
2021/03/23 03:47:44;;;;;;;;;;;12.30;54.70;;;;;;2092682;28;781;-47
2021/03/23 03:49:03;;;;;;;;;;;12.30;54.80;;;;;;2092200;28;727;-48
2021/03/23 03:50:23;;;;;;;;;;;12.30;54.80;;;;;;2091173;28;1057;-48
2021/03/23 03:51:43;;;;;;;;;;;12.30;55.30;;;;;;2092214;28;1444;-48
2021/03/23 03:53:02;;;;;;;;;;;12.30;55.30;;;;;;2087875;28;1419;-48
2021/03/23 03:54:21;;;;;;;;;;;12.30;54.80;;;;;;2091824;28;1191;-48
2021/03/23 03:55:41;;;;;;;;;;;12.30;54.90;;;;;;2098574;28;1387;-48
2021/03/23 03:57:00;;;;;;;;;;;12.30;54.80;;;;;;2099152;28;1249;-48
2021/03/23 03:58:20;;;;;;;;;;;12.30;54.80;;;;;;2098725;28;1236;-47
2021/03/23 03:59:39;;;;;;;;;;;12.30;54.90;;;;;;2099391;28;1115;-48
2021/03/23 04:00:58;;;;;;;;;;;12.30;54.90;;;;;;2095876;28;1426;-47
2021/03/23 04:02:17;;;;;;;;;;;12.30;54.90;;;;;;2098844;28;1906;-46
2021/03/23 04:03:36;;;;;;;;;;;12.30;54.90;;;;;;2096403;28;1811;-47
2021/03/23 04:04:56;;;;;;;;;;;12.30;54.90;;;;;;2093134;28;1423;-47
2021/03/23 04:06:15;;;;;;;;;;;12.30;54.90;;;;;;2084402;28;1446;-46
2021/03/23 04:07:34;;;;;;;;;;;12.30;54.90;;;;;;2089667;28;1445;-47
2021/03/23 04:08:54;;;;;;;;;;;12.30;54.90;;;;;;2092205;28;1198;-47
2021/03/23 04:10:13;;;;;;;;;;;12.30;55.40;;;;;;2096155;28;1593;-47
2021/03/23 04:11:32;;;;;;;;;;;12.30;54.90;;;;;;2085494;28;1411;-47
2021/03/23 04:12:51;;;;;;;;;;;12.20;54.80;;;;;;2083509;28;1216;-47
2021/03/23 04:14:10;;;;;;;;;;;12.30;54.90;;;;;;2090040;28;1380;-47
2021/03/23 04:15:34;;;;;;;;;;;12.30;54.90;;;;;;2088407;28;1840;-48
2021/03/23 04:16:53;;;;;;;;;;;12.30;54.90;;;;;;2082152;28;1094;-48
2021/03/23 04:18:13;;;;;;;;;;;12.20;54.80;;;;;;2089257;28;1303;-47
2021/03/23 04:19:32;;;;;;;;;;;12.20;54.80;;;;;;2081192;28;1424;-47
2021/03/23 04:20:52;;;;;;;;;;;12.20;54.90;;;;;;2087963;28;1398;-46
2021/03/23 04:22:11;;;;;;;;;;;12.20;54.90;;;;;;2092951;28;1910;-47
2021/03/23 04:23:35;;;;;;;;;;;12.20;54.90;;;;;;2093166;28;1329;-49
2021/03/23 04:24:54;;;;;;;;;;;12.20;54.90;;;;;;2090697;28;1248;-46
2021/03/23 04:26:13;;;;;;;;;;;12.20;54.90;;;;;;2091820;28;1204;-49
2021/03/23 04:27:32;;;;;;;;;;;12.20;54.90;;;;;;2091084;28;1319;-49
2021/03/23 04:28:52;;;;;;;;;;;12.20;54.90;;;;;;2082758;28;1485;-49
2021/03/23 04:30:11;;;;;;;;;;;12.20;54.90;;;;;;2087021;28;1347;-49
2021/03/23 04:31:40;;;;;;;;;;;12.20;54.90;;;;;;2091267;28;1443;-53
2021/03/23 04:32:59;;;;;;;;;;;12.20;55.00;;;;;;2089441;28;1369;-49
2021/03/23 04:34:18;;;;;;;;;;;12.20;55.00;;;;;;2090747;28;1251;-47
2021/03/23 04:35:51;;;;;;;;;;;12.20;54.90;;;;;;2090886;28;1224;-48
2021/03/23 04:37:11;;;;;;;;;;;12.20;55.00;;;;;;2091338;28;1142;-48
2021/03/23 04:38:31;;;;;;;;;;;12.20;54.90;;;;;;2093117;28;1247;-48
2021/03/23 04:39:50;;;;;;;;;;;12.20;54.90;;;;;;2092056;28;1256;-48
2021/03/23 04:41:10;;;;;;;;;;;12.20;54.90;;;;;;2080212;28;1524;-48
2021/03/23 04:42:29;;;;;;;;;;;12.20;54.90;;;;;;2081243;28;1345;-48
2021/03/23 04:43:49;;;;;;;;;;;12.20;54.90;;;;;;2088752;28;1354;-47
2021/03/23 04:45:08;;;;;;;;;;;12.20;55.00;;;;;;2092632;28;1401;-48
2021/03/23 04:46:27;;;;;;;;;;;12.20;55.00;;;;;;2095449;28;1404;-48
2021/03/23 04:47:47;;;;;;;;;;;12.20;54.90;;;;;;2092362;28;1436;-49
2021/03/23 04:49:06;;;;;;;;;;;12.30;55.00;;;;;;2092788;28;1177;-48
2021/03/23 04:50:25;;;;;;;;;;;12.30;54.90;;;;;;2092167;28;1460;-47
2021/03/23 04:51:45;;;;;;;;;;;12.30;54.90;;;;;;2092967;28;1393;-48
2021/03/23 04:53:04;;;;;;;;;;;12.20;54.80;;;;;;2090703;28;1303;-48
2021/03/23 04:54:24;;;;;;;;;;;12.20;55.00;;;;;;2092762;28;1232;-48
2021/03/23 04:55:43;;;;;;;;;;;12.20;55.00;;;;;;2092241;28;1398;-48
2021/03/23 04:57:02;;;;;;;;;;;12.20;55.10;;;;;;2091319;28;1385;-48
2021/03/23 04:58:22;;;;;;;;;;;12.20;55.20;;;;;;2091672;28;1204;-48
2021/03/23 04:59:40;;;;;;;;;;;12.20;55.70;;;;;;2090301;28;1101;-48
2021/03/23 05:01:00;;;;;;;;;;;12.20;55.70;;;;;;2092356;28;1419;-48
2021/03/23 05:02:19;;;;;;;;;;;12.20;55.80;;;;;;2089236;28;1986;-48
2021/03/23 05:03:39;;;;;;;;;;;12.20;55.30;;;;;;2089454;28;1209;-49
2021/03/23 05:04:58;;;;;;;;;;;12.20;55.40;;;;;;2090291;28;1428;-48
2021/03/23 05:06:17;;;;;;;;;;;12.20;55.40;;;;;;2092939;28;1278;-47
2021/03/23 05:07:37;;;;;;;;;;;12.20;55.40;;;;;;2090604;28;1357;-48
2021/03/23 05:08:56;;;;;;;;;;;12.20;55.40;;;;;;2090032;28;1219;-48
2021/03/23 05:10:15;;;;;;;;;;;12.20;55.50;;;;;;2092746;28;1458;-48
2021/03/23 05:11:35;;;;;;;;;;;12.20;55.50;;;;;;2085074;28;1388;-48
2021/03/23 05:12:54;;;;;;;;;;;12.20;55.40;;;;;;2090238;28;1164;-48
2021/03/23 05:14:13;;;;;;;;;;;12.20;55.50;;;;;;2090675;28;1108;-48
2021/03/23 05:15:32;;;;;;;;;;;12.20;55.50;;;;;;2093875;28;1122;-48
2021/03/23 05:16:51;;;;;;;;;;;12.20;55.50;;;;;;2091297;28;1206;-48
2021/03/23 05:18:11;;;;;;;;;;;12.10;55.40;;;;;;2089107;28;1184;-48
2021/03/23 05:19:30;;;;;;;;;;;12.20;55.50;;;;;;2089521;28;1284;-47
2021/03/23 05:20:49;;;;;;;;;;;12.10;55.40;;;;;;2088440;28;2023;-48
2021/03/23 05:22:09;;;;;;;;;;;12.10;55.40;;;;;;2088939;28;1969;-49
2021/03/23 05:23:28;;;;;;;;;;;12.10;55.40;;;;;;2090003;28;1159;-47
2021/03/23 05:24:47;;;;;;;;;;;12.10;55.40;;;;;;2086464;28;1278;-47
2021/03/23 05:26:07;;;;;;;;;;;12.10;55.50;;;;;;2091008;28;1371;-47
2021/03/23 05:27:26;;;;;;;;;;;12.20;55.50;;;;;;2089747;28;1180;-47
2021/03/23 05:28:47;;;;;;;;;;;12.10;55.40;;;;;;2090150;28;1378;-54
2021/03/23 05:30:07;;;;;;;;;;;12.10;55.40;;;;;;2090463;28;1582;-48
2021/03/23 05:31:26;;;;;;;;;;;12.10;55.50;;;;;;2090274;28;1433;-48
2021/03/23 05:32:45;;;;;;;;;;;12.10;56.10;;;;;;2090944;28;1336;-49
2021/03/23 05:34:04;;;;;;;;;;;12.10;55.50;;;;;;2090690;28;1089;-48
2021/03/23 05:35:23;;;;;;;;;;;12.10;55.50;;;;;;2089331;28;1091;-48
2021/03/23 05:36:44;;;;;;;;;;;12.10;55.50;;;;;;2090288;28;1225;-47
2021/03/23 05:38:03;;;;;;;;;;;12.10;55.50;;;;;;2090581;28;1195;-47
2021/03/23 05:39:22;;;;;;;;;;;12.10;55.60;;;;;;2091423;28;1140;-47
2021/03/23 05:40:43;;;;;;;;;;;12.10;55.50;;;;;;2090414;28;1277;-47
2021/03/23 05:42:04;;;;;;;;;;;12.10;55.50;;;;;;2086094;28;1910;-47
2021/03/23 05:43:29;;;;;;;;;;;12.10;55.50;;;;;;2088113;28;1187;-47
2021/03/23 05:44:56;;;;;;;;;;;12.10;55.50;;;;;;2091713;28;1269;-49
2021/03/23 05:46:16;;;;;;;;;;;12.10;55.50;;;;;;2088417;28;1275;-46
2021/03/23 05:47:40;;;;;;;;;;;12.10;55.50;;;;;;2088821;28;1186;-49
2021/03/23 05:49:18;;;;;;;;;;;12.10;56.10;;;;;;2089723;28;894;-45
2021/03/23 05:50:38;;;;;;;;;;;12.10;55.20;;;;;;2088016;28;1040;-47
2021/03/23 05:52:17;;;;;;;;;;;12.00;54.30;;;;;;2090352;28;908;-47
2021/03/23 05:53:44;;;;;;;;;;;11.90;54.50;;;;;;2093989;28;1371;-46
2021/03/23 05:55:06;;;;;;;;;;;11.90;54.60;;;;;;2089103;28;1143;-48
2021/03/23 05:56:26;;;;;;;;;;;11.90;54.60;;;;;;2089941;28;1169;-48
2021/03/23 05:57:46;;;;;;;;;;;11.90;54.70;;;;;;2089426;28;1380;-47
2021/03/23 05:59:16;;;;;;;;;;;11.90;55.20;;;;;;2078794;28;913;-47
2021/03/23 06:00:36;;;;;;;;;;;11.90;54.80;;;;;;2090008;28;918;-47
2021/03/23 06:01:56;;;;;;;;;;;11.90;55.30;;;;;;2077169;28;1911;-49
2021/03/23 06:03:19;;;;;;;;;;;11.90;55.20;;;;;;2086627;28;1332;-49
2021/03/23 06:04:56;;;;;;;;;;;11.90;54.70;;;;;;2088666;28;1108;-48
2021/03/23 06:06:28;;;;;;;;;;;11.90;54.70;;;;;;2094456;28;1130;-47
2021/03/23 06:07:50;;;;;;;;;;;12.00;54.90;;;;;;2090524;28;1195;-48
2021/03/23 06:09:10;;;;;;;;;;;11.90;54.80;;;;;;2088805;28;1380;-47
2021/03/23 06:10:29;;;;;;;;;;;12.00;54.90;;;;;;2089526;28;1261;-47
2021/03/23 06:12:04;;;;;;;;;;;12.00;55.40;;;;;;2089775;28;1216;-48
2021/03/23 06:13:26;;;;;;;;;;;12.00;55.50;;;;;;2088833;28;1229;-47
2021/03/23 06:14:47;;;;;;;;;;;12.00;55.50;;;;;;2089564;28;1204;-47
2021/03/23 06:16:18;;;;;;;;;;;12.00;54.90;;;;;;2083965;28;1300;-48
2021/03/23 06:18:15;;;;;;;;;;;12.00;55.00;;;;;;2088259;28;1468;-47
2021/03/23 06:19:44;;;;;;;;;;;12.00;55.00;;;;;;2097419;28;1475;-48
2021/03/23 06:21:06;;;;;;;;;;;12.00;55.00;;;;;;2097247;28;1537;-47
2021/03/23 06:22:43;;;;;;;;;;;12.00;55.00;;;;;;2088807;28;1918;-48
2021/03/23 06:24:06;;;;;;;;;;;12.00;55.00;;;;;;2088446;28;1331;-47
2021/03/23 06:25:35;;;;;;;;;;;12.00;55.60;;;;;;2085526;28;1160;-47
2021/03/23 06:26:59;;;;;;;;;;;12.00;55.00;;;;;;2087685;28;1035;-46
2021/03/23 06:28:24;;;;;;;;;;;12.00;55.60;;;;;;2084148;28;1065;-46
2021/03/23 06:30:02;;;;;;;;;;;12.00;55.10;;;;;;2087210;28;1361;-47
2021/03/23 06:31:40;;;;;;;;;;;12.00;55.20;;;;;;2088182;28;1418;-46
2021/03/23 06:32:59;;;;;;;;;;;12.00;55.20;;;;;;2089572;28;1178;-47
2021/03/23 06:34:19;;;;;;;;;;;12.20;55.60;;;;;;2087329;28;1137;-47
2021/03/23 06:35:45;;;;;;;;;;;12.20;55.60;;;;;;2083675;28;1257;-47
2021/03/23 06:37:19;;;;;;;;;;;12.30;55.40;;;;;;2079178;28;1408;-48
2021/03/23 06:38:40;;;;;;;;;;;12.40;55.50;;;;;;2089285;28;1243;-47
2021/03/23 06:39:59;;;;;;;;;;;12.40;55.40;;;;;;2086355;28;1166;-47
2021/03/23 06:41:22;;;;;;;;;;;12.50;54.80;;;;;;2086376;28;1545;-48
2021/03/23 06:42:45;;;;;;;;;;;12.50;54.70;;;;;;2090229;28;897;-47
2021/03/23 06:44:13;;;;;;;;;;;12.50;54.50;;;;;;2078001;28;1189;-47
2021/03/23 06:45:33;;;;;;;;;;;12.60;54.50;;;;;;2084646;28;1287;-47
2021/03/23 06:46:53;;;;;;;;;;;12.60;54.30;;;;;;2089886;28;1483;-49
2021/03/23 06:48:25;;;;;;;;;;;12.70;54.20;;;;;;2082639;28;1068;-47
2021/03/23 06:49:44;;;;;;;;;;;12.70;54.10;;;;;;2085318;28;1193;-47
2021/03/23 06:51:07;;;;;;;;;;;12.80;54.00;;;;;;2088129;28;1507;-47
2021/03/23 06:52:26;;;;;;;;;;;12.80;53.90;;;;;;2090548;28;1099;-47
2021/03/23 06:53:46;;;;;;;;;;;12.90;54.30;;;;;;2085593;28;1159;-46
2021/03/23 06:55:17;;;;;;;;;;;12.90;53.70;;;;;;2085392;28;1234;-47
2021/03/23 06:56:36;;;;;;;;;;;13.00;53.60;;;;;;2093050;28;1297;-46
2021/03/23 06:57:55;;;;;;;;;;;13.00;54.00;;;;;;2089359;28;1110;-47
2021/03/23 06:59:15;;;;;;;;;;;13.10;53.40;;;;;;2089698;28;1155;-47
2021/03/23 07:00:35;;;;;;;;;;;13.10;53.20;;;;;;2089606;28;930;-47
2021/03/23 07:02:02;;;;;;;;;;;13.20;53.10;;;;;;2077561;28;1906;-47
2021/03/23 07:03:24;;;;;;;;;;;13.20;52.90;;;;;;2083842;28;1214;-47
2021/03/23 07:04:43;;;;;;;;;;;13.30;52.80;;;;;;2092998;28;1235;-48
2021/03/23 07:06:02;;;;;;;;;;;13.40;52.70;;;;;;2089366;28;1481;-46
2021/03/23 07:07:21;;;;;;;;;;;13.40;52.60;;;;;;2078269;28;1077;-45
2021/03/23 07:08:40;;;;;;;;;;;13.50;52.60;;;;;;2079960;28;1322;-47
2021/03/23 07:10:00;;;;;;;;;;;13.40;52.40;;;;;;2092688;28;1114;-47
2021/03/23 07:11:19;;;;;;;;;;;13.50;52.40;;;;;;2091015;28;1425;-48
2021/03/23 07:12:41;;;;;;;;;;;13.50;52.40;;;;;;2085717;28;1078;-47
2021/03/23 07:14:00;;;;;;;;;;;13.50;52.40;;;;;;2089363;28;1620;-46
2021/03/23 07:15:23;;;;;;;;;;;13.50;52.40;;;;;;2088968;28;1193;-47
2021/03/23 07:16:43;;;;;;;;;;;13.50;53.00;;;;;;2086731;28;1231;-47
2021/03/23 07:18:04;;;;;;;;;;;13.50;52.50;;;;;;2086333;28;1282;-46
2021/03/23 07:19:24;;;;;;;;;;;13.50;52.40;;;;;;2089792;28;1162;-47
2021/03/23 07:20:44;;;;;;;;;;;13.50;52.40;;;;;;2088899;28;1419;-47
2021/03/23 07:22:06;;;;;;;;;;;13.50;52.40;;;;;;2086264;28;1913;-46
2021/03/23 07:23:32;;;;;;;;;;;13.60;52.40;;;;;;2089756;28;1232;-47
2021/03/23 07:24:52;;;;;;;;;;;13.60;52.80;;;;;;2087960;28;1026;-48
2021/03/23 07:26:13;;;;;;;;;;;13.70;52.30;;;;;;2087606;28;1037;-47
2021/03/23 07:27:33;;;;;;;;;;;13.70;52.10;;;;;;2089891;28;1026;-47
2021/03/23 07:28:53;;;;;;;;;;;13.80;52.10;;;;;;2087895;28;1529;-47
2021/03/23 07:30:30;;;;;;;;;;;13.80;52.10;;;;;;2089866;28;1228;-49
2021/03/23 07:31:52;;;;;;;;;;;13.90;52.00;;;;;;2087397;28;1403;-48
2021/03/23 07:33:18;;;;;;;;;;;14.00;51.90;;;;;;2084305;28;1127;-48
2021/03/23 07:34:43;;;;;;;;;;;14.00;51.80;;;;;;2087184;28;1387;-47
2021/03/23 07:36:02;;;;;;;;;;;14.10;52.20;;;;;;2089473;28;1010;-47
2021/03/23 07:37:36;;;;;;;;;;;14.10;51.60;;;;;;2089247;28;1333;-46
2021/03/23 07:39:02;;;;;;;;;;;14.20;51.50;;;;;;2089962;28;1042;-46
2021/03/23 07:40:23;;;;;;;;;;;14.30;51.50;;;;;;2091175;28;1023;-47
2021/03/23 07:42:00;;;;;;;;;;;14.30;51.80;;;;;;2081758;28;1906;-48
2021/03/23 07:43:22;;;;;;;;;;;14.40;51.20;;;;;;2087658;28;1401;-48
2021/03/23 07:44:41;;;;;;;;;;;14.50;51.10;;;;;;2090014;28;1276;-48
2021/03/23 07:46:06;;;;;;;;;;;14.50;51.00;;;;;;2089474;28;1059;-48
2021/03/23 07:47:44;;;;;;;;;;;14.50;50.90;;;;;;2089037;28;949;-47
2021/03/23 07:49:05;;;;;;;;;;;14.60;50.90;;;;;;2089111;28;1139;-46
2021/03/23 07:50:26;;;;;;;;;;;14.60;50.80;;;;;;2089906;28;1149;-46
2021/03/23 07:51:47;;;;;;;;;;;14.60;50.80;;;;;;2090244;28;1477;-47
2021/03/23 07:53:09;;;;;;;;;;;14.60;50.80;;;;;;2086470;28;1199;-47
2021/03/23 07:54:38;;;;;;;;;;;14.60;51.30;;;;;;2089709;28;1226;-49
2021/03/23 07:56:00;;;;;;;;;;;14.60;50.80;;;;;;2087824;28;1110;-46
2021/03/23 07:57:32;;;;;;;;;;;14.60;50.80;;;;;;2085384;28;1164;-47
2021/03/23 07:59:14;;;;;;;;;;;14.70;50.90;;;;;;2088028;28;1137;-47
2021/03/23 08:00:45;;;;;;;;;;;14.70;50.90;;;;;;2089395;28;1216;-47
2021/03/23 08:02:17;;;;;;;;;;;14.70;50.90;;;;;;2089776;28;1906;-51